SÍGUENOS

APP INUMET

Disponible en Google Play

Productos aeronáuticos

  • SIGMET
  • METAR / SPECI
  • TAF
  • AIREP
  • Aviso de aeródromo
  • Pronárea
  • Carta superficie

Mensajes METAR de la última hora

SUAA 191200Z 35012KT CAVOK 17/04 Q1006
SUCA 191200Z 34020G36KT CAVOK 20/12 Q1004
SUDU 191200Z 33010G20KT CAVOK 20/02 Q1009
SULS 191200Z 31017G27KT CAVOK 17/04 Q1006
SUMU 191200Z 34016G26KT CAVOK 17/05 Q1006 NOSIG
SUSO 191200Z 36013KT CAVOK 19/07 Q1011

Mensajes METAR de la última hora - Internacionales


Argentina
SAAR 191200Z 29018KT CAVOK 21/10 Q1008
SABE 191200Z 31012G22KT CAVOK 20/03 Q1006
SACO 191200Z 29012KT CAVOK 26/03 Q1011
SAEZ 191200Z 30018KT CAVOK 20/06 Q1005
SAME 191200Z 16010KT CAVOK 22/M04 Q1014
Bolivia
SLCP 191200Z 18004KT 5000 -TSRA BKN010 FEW030CB OVC070 20/20 Q1013
SLLP 191200Z VRB02KT 9999 FEW008 BKN200 09/02 Q1034
Brasil
SBBR 191200Z VRB04KT 9999 SCT020 BKN080 22/17 Q1017
SBFI 191200Z 16005KT CAVOK 20/13 Q1013
SBFL 191200Z 20011KT 9999 SCT030 SCT040 BKN100 19/15 Q1012
SBGR 191200Z 34003KT 9999 -RA BKN011 SCT080 22/20 Q1013
SBPA 191200Z 33004KT 280V050 9999 SCT035 19/12 Q1013
SBRJ 191200Z 01005KT 9999 SCT035 OVC090 26/23 Q1008
SBSP 191200Z 32005KT 9999 FEW008 BKN009 22/19 Q1014
Chile
SCCI 191200Z 26033KT 9999 FEW017 SCT100 BKN120 04/01 Q1000 NOSIG
SCEL 191200Z VRB02KT CAVOK 17/06 Q1015 NOSIG
Ecuador
SEQM 191200Z 14002KT CAVOK 08/07 Q1025 NOSIG RMK A3028
EEUU
KMIA 191153Z 00000KT 10SM FEW035 18/17 A2997 RMK AO2 SLP148 T01830167 10222 20183 53009
KDCA 191152Z 29015G25KT 10SM FEW035 FEW140 10/01 A2958 RMK AO2 PK WND 31042/1057 SLP018 60007 70007 T01000011 10172 20100 53084
KIAD 191152Z 31016G27KT 10SM FEW050 FEW130 08/00 A2959 RMK AO2 PK WND 30042/1056 SLP020 60006 70010 T00780000 10156 20078 53076
KJFK 191151Z 21019G25KT 10SM -RA BKN021 OVC075 14/13 A2925 RMK AO2 SLP904 P0002 60023 70043 T01440133 10144 20128 56022
KLGA 191151Z 22017G30KT 7SM -RA FEW010 SCT015 OVC024 14/12 A2922 RMK AO2 PK WND 21030/1148 SLP895 P0003 60021 70033 T01440117 10156 20139 56017
Francia
LFPO 191200Z 34009KT 320V030 9999 SCT030 BKN036 09/02 Q1024 NOSIG
LFPO 191130Z 35007KT 310V020 9999 BKN030 09/02 Q1024 NOSIG
Paraguay
SGAS 191200Z 12008KT 080V170 CAVOK 21/08 Q1012
SGAS 191130Z 12005KT 070V160 CAVOK 20/09 Q1012
Venezuela
SVMI 191201Z /////KT 9999 FEW016 27/24 Q1007

* Datos extraidos del Text DataServer de la NOAA (NOAA TEXT DATA SERVER)

Instituto Uruguayo de Meteorología

Dr. Javier Barrios Amorín 1488 - CP 11200
Mesa Central (598) 1895 - Desde el interior 21895

Montevideo - Uruguay